Time;durP1;ratioP1;P1;durP2;ratioP2;P2;SDS_P1;SDS_P2;PMS_P1;PMS_P2;Temp;Humidity;BMP_temperature;BMP_pressure;BME280_temperature;BME280_humidity;BME280_pressure;Samples;Min_cycle;Max_cycle;Signal;HPM_P1;HPM_P2
2023/07/03 00:01:16;;;;;;;10.90;5.28;;;;;;;-148.88;69.16;-17125.47;5036289;28;20480;-72
2023/07/03 00:03:41;;;;;;;14.20;5.45;;;;;;;-148.88;69.54;-17125.47;5036297;28;20388;-72
2023/07/03 00:06:07;;;;;;;10.05;5.30;;;;;;;-148.88;70.08;-17125.47;5018527;28;20024;-72
2023/07/03 00:08:33;;;;;;;11.07;5.32;;;;;;;-148.88;70.68;-17125.47;5036230;28;20365;-73
2023/07/03 00:11:03;;;;;;;12.52;5.45;;;;;;;-148.88;70.85;-17125.47;5036292;28;20037;-72
2023/07/03 00:13:29;;;;;;;13.02;5.30;;;;;;;-148.88;71.49;-17125.47;5036158;28;20091;-72
2023/07/03 00:16:02;;;;;;;13.30;6.00;;;;;;;-148.88;71.85;-17125.47;5035928;28;20472;-72
2023/07/03 00:18:28;;;;;;;16.40;5.70;;;;;;;-148.88;72.86;-17125.47;5036003;28;20480;-73
2023/07/03 00:20:54;;;;;;;13.63;4.90;;;;;;;-148.88;72.83;-17125.47;5018331;28;20079;-72
2023/07/03 00:23:24;;;;;;;13.90;5.88;;;;;;;-148.88;73.66;-17125.47;5036029;28;20415;-72
2023/07/03 00:25:50;;;;;;;12.48;5.25;;;;;;;-148.88;74.98;-17125.47;5036044;28;20025;-73
2023/07/03 00:28:16;;;;;;;12.60;5.75;;;;;;;-148.88;75.03;-17125.47;5036066;28;20475;-73
2023/07/03 00:30:42;;;;;;;14.88;5.75;;;;;;;-148.88;75.63;-17125.47;5018027;28;20108;-73
2023/07/03 00:33:07;;;;;;;13.48;5.53;;;;;;;-148.88;74.68;-17125.47;5035814;28;20090;-72
2023/07/03 00:35:32;;;;;;;12.35;5.35;;;;;;;-148.88;75.47;-17125.47;5017857;28;20068;-73
2023/07/03 00:37:58;;;;;;;11.65;5.00;;;;;;;-148.88;75.83;-17125.47;5035651;28;20108;-73
2023/07/03 00:40:23;;;;;;;10.85;5.05;;;;;;;-148.88;75.38;-17125.47;5035611;28;20496;-72
2023/07/03 00:42:52;;;;;;;11.52;5.50;;;;;;;-148.88;76.44;-17125.47;5035440;28;20526;-72
2023/07/03 00:45:18;;;;;;;10.32;5.00;;;;;;;-148.88;76.75;-17125.47;5035500;28;20036;-72
2023/07/03 00:47:43;;;;;;;13.20;5.97;;;;;;;-148.88;77.71;-17125.47;5035409;28;20388;-73
2023/07/03 00:50:09;;;;;;;12.25;6.00;;;;;;;-148.88;77.78;-17125.47;5035064;28;20036;-74
2023/07/03 00:52:35;;;;;;;12.13;5.43;;;;;;;-148.88;77.42;-17125.47;5035367;28;20026;-74
2023/07/03 00:55:01;;;;;;;13.63;5.57;;;;;;;-148.88;78.29;-17125.47;5017710;28;20472;-72
2023/07/03 00:57:28;;;;;;;16.13;5.22;;;;;;;-148.88;78.45;-17125.47;5017754;28;20044;-73
2023/07/03 00:59:53;;;;;;;12.77;5.78;;;;;;;-148.88;79.24;-17125.47;5017470;28;20476;-73
2023/07/03 01:02:27;;;;;;;10.20;5.30;;;;;;;-148.88;78.61;-17125.47;5035639;28;20083;-71
2023/07/03 01:05:03;;;;;;;14.07;6.15;;;;;;;-148.88;78.52;-17125.47;5035510;28;20025;-72
2023/07/03 01:07:32;;;;;;;13.55;6.20;;;;;;;-148.88;78.77;-17125.47;5035701;28;20029;-73
2023/07/03 01:10:02;;;;;;;16.00;6.07;;;;;;;-148.88;79.24;-17125.47;5034957;28;20036;-73
2023/07/03 01:12:32;;;;;;;9.57;5.45;;;;;;;-148.88;79.38;-17125.47;5017095;28;20063;-73
2023/07/03 01:15:04;;;;;;;14.23;5.72;;;;;;;-148.88;80.47;-17125.47;5034829;28;20041;-74
2023/07/03 01:17:32;;;;;;;13.82;6.35;;;;;;;-148.88;80.54;-17125.47;5034975;28;20496;-74
2023/07/03 01:19:59;;;;;;;14.10;5.57;;;;;;;-148.88;81.18;-17125.47;5034773;28;20045;-74
2023/07/03 01:22:27;;;;;;;13.93;5.68;;;;;;;-148.88;81.78;-17125.47;5034547;28;20488;-74
2023/07/03 01:24:58;;;;;;;16.05;6.05;;;;;;;-148.88;80.77;-17125.47;5034719;28;20021;-74
2023/07/03 01:27:28;;;;;;;18.30;5.90;;;;;;;-148.88;81.38;-17125.47;5034822;28;20063;-74
2023/07/03 01:29:54;;;;;;;16.08;5.90;;;;;;;-148.88;81.51;-17125.47;5034606;28;20111;-74
2023/07/03 01:32:22;;;;;;;15.95;5.90;;;;;;;-148.88;82.52;-17125.47;5034474;28;20025;-74
2023/07/03 01:34:53;;;;;;;13.15;5.65;;;;;;;-148.88;82.00;-17125.47;5034420;28;20026;-74
2023/07/03 01:37:21;;;;;;;16.88;5.75;;;;;;;-148.88;82.65;-17125.47;5034858;28;20501;-74
2023/07/03 01:39:49;;;;;;;18.10;6.25;;;;;;;-148.88;83.14;-17125.47;5034888;28;20109;-74
2023/07/03 01:42:14;;;;;;;16.02;6.13;;;;;;;-148.88;83.96;-17125.47;5034432;28;20100;-74
2023/07/03 01:44:40;;;;;;;13.50;5.78;;;;;;;-148.88;83.68;-17125.47;5034422;28;20117;-74
2023/07/03 01:47:09;;;;;;;17.27;6.10;;;;;;;-148.88;84.36;-17125.47;5034678;28;20021;-74
2023/07/03 01:49:34;;;;;;;14.10;6.40;;;;;;;-148.88;83.97;-17125.47;5034500;28;20053;-74
2023/07/03 01:52:08;;;;;;;13.82;5.82;;;;;;;-148.88;84.88;-17125.47;5034339;28;20044;-74
2023/07/03 01:54:47;;;;;;;12.18;5.65;;;;;;;-148.88;85.35;-17125.47;5034135;28;20038;-74
2023/07/03 01:57:22;;;;;;;18.48;6.72;;;;;;;-148.88;85.32;-17125.47;5034101;28;20037;-74
2023/07/03 01:59:52;;;;;;;20.17;6.72;;;;;;;-148.88;84.86;-17125.47;5034173;28;20507;-74
2023/07/03 02:02:24;;;;;;;15.35;5.63;;;;;;;-148.88;84.34;-17125.47;5033352;28;20075;-74
2023/07/03 02:05:11;;;;;;;15.60;6.40;;;;;;;-148.88;83.49;-17125.47;5034104;28;20018;-74
2023/07/03 02:07:39;;;;;;;17.30;6.10;;;;;;;-148.88;83.13;-17125.47;5033958;28;20021;-74
2023/07/03 02:10:05;;;;;;;13.88;6.20;;;;;;;-148.88;82.96;-17125.47;5034155;28;20509;-74
2023/07/03 02:12:30;;;;;;;17.45;5.40;;;;;;;-148.88;82.19;-17125.47;5034005;28;20118;-74
2023/07/03 02:15:02;;;;;;;15.75;6.15;;;;;;;-148.88;83.35;-17125.47;5016372;28;20192;-74
2023/07/03 02:17:28;;;;;;;18.05;6.13;;;;;;;-148.88;84.29;-17125.47;5034311;28;20484;-74
2023/07/03 02:19:54;;;;;;;16.75;6.55;;;;;;;-148.88;84.41;-17125.47;5016495;28;20036;-73
2023/07/03 02:22:19;;;;;;;17.98;6.15;;;;;;;-148.88;84.40;-17125.47;5016005;28;20026;-74
2023/07/03 02:24:45;;;;;;;15.88;6.70;;;;;;;-148.88;85.79;-17125.47;5016349;28;20439;-73
2023/07/03 02:27:10;;;;;;;14.32;5.65;;;;;;;-148.88;85.10;-17125.47;5033721;28;20032;-74
2023/07/03 02:29:35;;;;;;;20.55;6.15;;;;;;;-148.88;85.93;-17125.47;5033877;28;20028;-74
2023/07/03 02:32:01;;;;;;;17.27;6.35;;;;;;;-148.88;86.50;-17125.47;5033694;28;20101;-73
2023/07/03 02:34:28;;;;;;;17.98;6.72;;;;;;;-148.88;86.94;-17125.47;5015702;28;20033;-74
2023/07/03 02:36:58;;;;;;;15.15;6.05;;;;;;;-148.88;85.89;-17125.47;5015859;28;20395;-74
2023/07/03 02:39:23;;;;;;;18.48;6.55;;;;;;;-148.88;87.04;-17125.47;5033741;28;20025;-74
2023/07/03 02:41:49;;;;;;;16.88;6.32;;;;;;;-148.88;87.75;-17125.47;5015603;28;20116;-74
2023/07/03 02:44:15;;;;;;;18.40;6.50;;;;;;;-148.88;88.48;-17125.47;5033470;28;20499;-74
2023/07/03 02:46:41;;;;;;;12.88;5.75;;;;;;;-148.88;89.40;-17125.47;5033493;28;20025;-74
2023/07/03 02:49:07;;;;;;;13.45;5.93;;;;;;;-148.88;89.28;-17125.47;5015974;28;20452;-74
2023/07/03 02:51:32;;;;;;;18.02;7.18;;;;;;;-148.88;89.51;-17125.47;5033445;28;20476;-75
2023/07/03 02:53:58;;;;;;;15.23;6.65;;;;;;;-148.88;89.55;-17125.47;5033545;28;20029;-74
2023/07/03 02:57:13;;;;;;;17.05;6.93;;;;;;;-148.88;90.32;-17125.47;5102792;22;20076;-86
2023/07/03 03:00:35;;;;;;;15.85;6.10;;;;;;;-148.88;89.91;-17125.47;5033465;28;20491;-86
2023/07/03 03:06:45;;;;;;;17.25;6.35;;;;;;;-148.88;88.95;-17125.47;4933845;29;20083;-87
2023/07/03 03:12:15;;;;;;;16.45;6.03;;;;;;;-148.88;89.69;-17125.47;4934485;29;20031;-88
2023/07/03 03:15:20;;;;;;;;;;;;;;;;;;;;;
2023/07/03 03:18:47;;;;;;;;;;;;;;;;;;;;;
2023/07/03 03:24:42;;;;;;;16.15;5.30;;;;;;;-148.88;88.31;-17125.47;4981898;22;20118;-74
2023/07/03 03:27:07;;;;;;;14.48;5.43;;;;;;;-148.88;88.28;-17125.47;5036775;28;20479;-73
2023/07/03 03:29:33;;;;;;;11.82;5.00;;;;;;;-148.88;88.38;-17125.47;5036820;28;20025;-74
2023/07/03 03:31:59;;;;;;;17.63;5.05;;;;;;;-148.88;88.91;-17125.47;5036632;28;20037;-73
2023/07/03 03:34:25;;;;;;;14.90;5.10;;;;;;;-148.88;88.67;-17125.47;5019046;28;20030;-74
2023/07/03 03:36:50;;;;;;;15.85;5.28;;;;;;;-148.88;88.90;-17125.47;5036680;28;20033;-74
2023/07/03 03:39:16;;;;;;;16.35;5.25;;;;;;;-148.88;88.58;-17125.47;5036670;28;20104;-74
2023/07/03 03:41:41;;;;;;;16.30;5.45;;;;;;;-148.88;88.22;-17125.47;5036758;28;20037;-75
2023/07/03 03:44:07;;;;;;;14.00;5.28;;;;;;;-148.88;87.59;-17125.47;5018591;28;20025;-74
2023/07/03 03:46:34;;;;;;;12.80;4.88;;;;;;;-148.88;87.67;-17125.47;5036462;28;20017;-74
2023/07/03 03:48:59;;;;;;;13.65;4.78;;;;;;;-148.88;86.91;-17125.47;5036601;28;20040;-74
2023/07/03 03:51:25;;;;;;;19.08;5.25;;;;;;;-148.88;87.55;-17125.47;5036761;28;20034;-74
2023/07/03 03:53:50;;;;;;;12.90;4.82;;;;;;;-148.88;87.36;-17125.47;5036257;28;20052;-74
2023/07/03 03:56:15;;;;;;;14.98;4.60;;;;;;;-148.88;86.72;-17125.47;5036204;28;20056;-74
2023/07/03 03:58:41;;;;;;;17.70;4.88;;;;;;;-148.88;87.17;-17125.47;5036194;28;20034;-74
2023/07/03 04:01:06;;;;;;;11.45;4.43;;;;;;;-148.88;86.30;-17125.47;5036446;28;20021;-74
2023/07/03 04:03:31;;;;;;;13.05;4.55;;;;;;;-148.88;87.60;-17125.47;5036000;28;20108;-74
2023/07/03 04:05:57;;;;;;;17.48;4.70;;;;;;;-148.88;87.05;-17125.47;5035880;28;20104;-74
2023/07/03 04:08:22;;;;;;;12.55;4.65;;;;;;;-148.88;87.63;-17125.47;5036339;28;20075;-74
2023/07/03 04:10:48;;;;;;;12.32;4.32;;;;;;;-148.88;86.67;-17125.47;5035947;28;20492;-74
2023/07/03 04:13:13;;;;;;;14.38;5.13;;;;;;;-148.88;86.82;-17125.47;5035839;28;20056;-74
2023/07/03 04:15:58;;;;;;;20.90;4.95;;;;;;;-148.88;86.83;-17125.47;5017947;28;20396;-74
2023/07/03 04:18:24;;;;;;;14.60;4.80;;;;;;;-148.88;86.59;-17125.47;5018152;28;20029;-74
2023/07/03 04:20:50;;;;;;;16.70;5.38;;;;;;;-148.88;85.86;-17125.47;5018202;28;20033;-74
2023/07/03 04:23:17;;;;;;;18.65;4.68;;;;;;;-148.88;86.18;-17125.47;5035658;28;20492;-75
2023/07/03 04:25:42;;;;;;;13.98;5.10;;;;;;;-148.88;86.42;-17125.47;5035374;28;20033;-74
2023/07/03 04:28:09;;;;;;;12.88;4.60;;;;;;;-148.88;86.30;-17125.47;5035854;28;20071;-75
2023/07/03 04:30:34;;;;;;;16.08;4.35;;;;;;;-148.88;86.73;-17125.47;5035628;28;20037;-74
2023/07/03 04:32:59;;;;;;;19.42;5.47;;;;;;;-148.88;87.16;-17125.47;5035526;28;20024;-74
2023/07/03 04:35:25;;;;;;;17.02;5.10;;;;;;;-148.88;87.63;-17125.47;5035391;28;20064;-74
2023/07/03 04:37:50;;;;;;;19.50;5.68;;;;;;;-148.88;88.20;-17125.47;5035401;28;20125;-74
2023/07/03 04:40:16;;;;;;;15.70;4.80;;;;;;;-148.88;86.32;-17125.47;5035307;28;20121;-74
2023/07/03 04:42:42;;;;;;;14.20;4.55;;;;;;;-148.88;85.07;-17125.47;5035536;28;20021;-73
2023/07/03 04:45:07;;;;;;;15.05;4.80;;;;;;;-148.88;85.76;-17125.47;5035341;28;20361;-74
2023/07/03 04:47:33;;;;;;;17.33;5.18;;;;;;;-148.88;86.23;-17125.47;5035238;28;20171;-74
2023/07/03 04:49:58;;;;;;;13.68;4.97;;;;;;;-148.88;86.33;-17125.47;5035237;28;20029;-74
2023/07/03 04:52:27;;;;;;;13.95;5.22;;;;;;;-148.88;86.93;-17125.47;5035174;28;20025;-73
2023/07/03 04:54:53;;;;;;;16.80;5.35;;;;;;;-148.88;87.52;-17125.47;5017488;28;20021;-74
2023/07/03 04:57:19;;;;;;;11.95;4.50;;;;;;;-148.88;86.57;-17125.47;5035251;28;20029;-74
2023/07/03 04:59:44;;;;;;;14.18;5.20;;;;;;;-148.88;87.06;-17125.47;5035118;28;20029;-74
2023/07/03 05:02:11;;;;;;;13.98;4.75;;;;;;;-148.88;87.58;-17125.47;5017092;28;20120;-74
2023/07/03 05:04:37;;;;;;;16.95;5.30;;;;;;;-148.88;86.91;-17125.47;5035354;28;20040;-74
2023/07/03 05:07:02;;;;;;;19.50;5.47;;;;;;;-148.88;87.09;-17125.47;5035104;28;20025;-74
2023/07/03 05:09:28;;;;;;;13.65;4.90;;;;;;;-148.88;87.01;-17125.47;5034974;28;20028;-74
2023/07/03 05:11:53;;;;;;;13.48;5.63;;;;;;;-148.88;87.50;-17125.47;5034747;28;20481;-74
2023/07/03 05:14:18;;;;;;;17.25;4.60;;;;;;;-148.88;86.69;-17125.47;5034793;28;20554;-74
2023/07/03 05:16:44;;;;;;;16.40;5.07;;;;;;;-148.88;87.20;-17125.47;5016921;28;20451;-74
2023/07/03 05:19:09;;;;;;;18.40;5.30;;;;;;;-148.88;86.86;-17125.47;5016916;28;20032;-74
2023/07/03 05:21:35;;;;;;;17.98;5.32;;;;;;;-148.88;87.72;-17125.47;5034503;28;20017;-74
2023/07/03 05:24:00;;;;;;;15.88;4.82;;;;;;;-148.88;87.06;-17125.47;5034343;28;20108;-74
2023/07/03 05:26:25;;;;;;;12.88;4.30;;;;;;;-148.88;87.21;-17125.47;5034408;28;20067;-74
2023/07/03 05:28:51;;;;;;;13.55;4.60;;;;;;;-148.88;87.52;-17125.47;5034466;28;20036;-74
2023/07/03 05:31:16;;;;;;;13.68;4.45;;;;;;;-148.88;87.46;-17125.47;5034443;28;20392;-74
2023/07/03 05:33:42;;;;;;;14.32;5.47;;;;;;;-148.88;87.82;-17125.47;5016643;28;20025;-75
2023/07/03 05:36:07;;;;;;;19.25;5.20;;;;;;;-148.88;87.92;-17125.47;5017501;28;20025;-75
2023/07/03 05:38:33;;;;;;;19.23;5.25;;;;;;;-148.88;88.18;-17125.47;5033328;28;20104;-75
2023/07/03 05:40:59;;;;;;;18.63;5.63;;;;;;;-148.88;88.69;-17125.47;5034566;28;20022;-74
2023/07/03 05:43:26;;;;;;;15.75;5.00;;;;;;;-148.88;86.71;-17125.47;5016282;28;20033;-75
2023/07/03 05:45:52;;;;;;;15.10;5.13;;;;;;;-148.88;88.01;-17125.47;5034177;28;20503;-75
2023/07/03 05:48:17;;;;;;;12.45;5.25;;;;;;;-148.88;87.66;-17125.47;5034085;28;20026;-74
2023/07/03 05:50:44;;;;;;;16.90;5.75;;;;;;;-148.88;87.94;-17125.47;5034099;28;20025;-75
2023/07/03 05:53:09;;;;;;;16.25;5.22;;;;;;;-148.88;88.44;-17125.47;5034233;28;20079;-75
2023/07/03 05:55:35;;;;;;;16.58;4.70;;;;;;;-148.88;88.90;-17125.47;5034023;28;20018;-74
2023/07/03 05:58:00;;;;;;;16.30;5.07;;;;;;;-148.88;88.41;-17125.47;5033823;28;20484;-74
2023/07/03 06:00:27;;;;;;;14.75;5.00;;;;;;;-148.88;88.85;-17125.47;5033748;28;20025;-75
2023/07/03 06:02:53;;;;;;;25.90;5.68;;;;;;;-148.88;89.56;-17125.47;5033667;28;20480;-75
2023/07/03 06:05:20;;;;;;;14.75;4.93;;;;;;;-148.88;89.59;-17125.47;5033643;28;20025;-76
2023/07/03 06:07:45;;;;;;;19.30;5.68;;;;;;;-148.88;90.08;-17125.47;5033607;28;20021;-74
2023/07/03 06:10:11;;;;;;;17.92;5.25;;;;;;;-148.88;91.27;-17125.47;5033596;28;20021;-74
2023/07/03 06:12:37;;;;;;;15.63;5.32;;;;;;;-148.88;90.21;-17125.47;5033523;28;20025;-75
2023/07/03 06:15:02;;;;;;;15.65;4.95;;;;;;;-148.88;90.08;-17125.47;5033469;28;20028;-74
2023/07/03 06:17:29;;;;;;;15.50;5.47;;;;;;;-148.88;90.76;-17125.47;5033402;28;20027;-75
2023/07/03 06:19:55;;;;;;;22.05;5.78;;;;;;;-148.88;90.73;-17125.47;5033453;28;20025;-76
2023/07/03 06:22:21;;;;;;;20.67;4.97;;;;;;;-148.88;90.68;-17125.47;5016100;28;20027;-76
2023/07/03 06:24:46;;;;;;;19.23;5.50;;;;;;;-148.88;90.74;-17125.47;5033221;28;20411;-75
2023/07/03 06:27:13;;;;;;;23.95;5.60;;;;;;;-148.88;90.93;-17125.47;5033358;28;20499;-75
2023/07/03 06:29:39;;;;;;;16.63;5.00;;;;;;;-148.88;91.20;-17125.47;5015562;28;20029;-75
2023/07/03 06:32:05;;;;;;;19.42;5.28;;;;;;;-148.88;91.41;-17125.47;5033206;28;20025;-75
2023/07/03 06:34:30;;;;;;;17.73;5.22;;;;;;;-148.88;91.61;-17125.47;5033149;28;20041;-75
2023/07/03 06:36:56;;;;;;;20.45;5.43;;;;;;;-148.88;91.24;-17125.47;5033054;28;20060;-75
2023/07/03 06:39:22;;;;;;;18.13;5.43;;;;;;;-148.88;91.06;-17125.47;5033201;28;20028;-75
2023/07/03 06:41:47;;;;;;;18.80;5.65;;;;;;;-148.88;91.91;-17125.47;5033056;28;20476;-74
2023/07/03 06:44:15;;;;;;;17.50;5.47;;;;;;;-148.88;91.97;-17125.47;5015450;28;20072;-75
2023/07/03 06:46:41;;;;;;;19.23;5.28;;;;;;;-148.88;92.20;-17125.47;5015464;28;20032;-76
2023/07/03 06:49:07;;;;;;;19.10;6.05;;;;;;;-148.88;91.95;-17125.47;5015184;28;20029;-75
2023/07/03 06:51:33;;;;;;;20.05;6.63;;;;;;;-148.88;92.39;-17125.47;5032951;28;20391;-75
2023/07/03 06:53:58;;;;;;;22.38;6.57;;;;;;;-148.88;93.36;-17125.47;5015565;28;20026;-75
2023/07/03 06:56:24;;;;;;;21.10;6.38;;;;;;;-148.88;93.69;-17125.47;5033199;28;20013;-75
2023/07/03 06:58:50;;;;;;;20.17;6.60;;;;;;;-148.88;94.01;-17125.47;5032976;28;20456;-75
2023/07/03 07:01:18;;;;;;;22.38;6.82;;;;;;;-148.88;93.36;-17125.47;5015358;28;20505;-75
2023/07/03 07:03:44;;;;;;;20.52;6.88;;;;;;;-148.88;94.15;-17125.47;5015338;28;20091;-75
2023/07/03 07:06:22;;;;;;;20.25;6.60;;;;;;;-148.88;93.24;-17125.47;5032760;28;20026;-74
2023/07/03 07:08:48;;;;;;;17.55;6.00;;;;;;;-148.88;93.77;-17125.47;5032825;28;20032;-75
2023/07/03 07:11:18;;;;;;;18.38;6.78;;;;;;;-148.88;95.06;-17125.47;5015015;28;20075;-75
2023/07/03 07:13:46;;;;;;;18.98;6.30;;;;;;;-148.88;93.24;-17125.47;5014974;28;20394;-75
2023/07/03 07:16:13;;;;;;;26.05;6.40;;;;;;;-148.88;92.91;-17125.47;5032670;28;20028;-77
2023/07/03 07:18:40;;;;;;;22.42;6.97;;;;;;;-148.88;91.99;-17125.47;5033067;28;20029;-76
2023/07/03 07:21:05;;;;;;;25.45;7.10;;;;;;;-148.88;92.05;-17125.47;5032802;28;20396;-75
2023/07/03 07:23:30;;;;;;;21.30;6.22;;;;;;;-148.88;92.01;-17125.47;5014721;28;20192;-75
2023/07/03 07:25:56;;;;;;;21.00;6.45;;;;;;;-148.88;92.48;-17125.47;5032788;28;20028;-75
2023/07/03 07:28:21;;;;;;;24.45;6.65;;;;;;;-148.88;91.75;-17125.47;5014907;28;20155;-75
2023/07/03 07:30:48;;;;;;;19.52;6.65;;;;;;;-148.88;90.40;-17125.47;5032737;28;20144;-75
2023/07/03 07:33:13;;;;;;;20.88;6.28;;;;;;;-148.88;90.48;-17125.47;5032654;28;20480;-76
2023/07/03 07:35:39;;;;;;;17.15;6.63;;;;;;;-148.88;90.69;-17125.47;5032546;28;20026;-76
2023/07/03 07:38:04;;;;;;;18.52;6.10;;;;;;;-148.88;90.27;-17125.47;5014929;28;20450;-76
2023/07/03 07:40:30;;;;;;;19.52;6.53;;;;;;;-148.88;89.85;-17125.47;5032543;28;20034;-75
2023/07/03 07:42:55;;;;;;;21.05;7.03;;;;;;;-148.88;86.89;-17125.47;5032414;28;20152;-75
2023/07/03 07:45:20;;;;;;;20.50;6.30;;;;;;;-148.88;88.14;-17125.47;5032828;28;20053;-77
2023/07/03 07:47:46;;;;;;;19.95;7.22;;;;;;;-148.88;86.65;-17125.47;5032500;28;20026;-76
2023/07/03 07:50:11;;;;;;;17.52;6.43;;;;;;;-148.88;86.01;-17125.47;5014983;28;20022;-76
2023/07/03 07:52:37;;;;;;;17.60;6.70;;;;;;;-148.88;85.12;-17125.47;5032312;28;20391;-75
2023/07/03 07:55:03;;;;;;;19.63;6.40;;;;;;;-148.88;84.67;-17125.47;5032572;28;20014;-76
2023/07/03 07:57:29;;;;;;;24.55;7.00;;;;;;;-148.88;85.21;-17125.47;5032427;28;20045;-75
2023/07/03 07:59:55;;;;;;;18.77;6.45;;;;;;;-148.88;84.83;-17125.47;5032349;28;20391;-76
2023/07/03 08:02:20;;;;;;;17.33;6.20;;;;;;;-148.88;84.53;-17125.47;5035541;28;20029;-75
2023/07/03 08:04:45;;;;;;;20.42;7.32;;;;;;;-148.88;83.70;-17125.47;5036325;28;20040;-76
2023/07/03 08:07:11;;;;;;;22.15;6.78;;;;;;;-148.88;82.47;-17125.47;5036373;28;20018;-75
2023/07/03 08:09:38;;;;;;;19.33;6.97;;;;;;;-148.88;83.05;-17125.47;5035969;28;20029;-75
2023/07/03 08:12:04;;;;;;;17.33;6.72;;;;;;;-148.88;84.20;-17125.47;5035875;28;20041;-74
2023/07/03 08:14:30;;;;;;;18.23;6.03;;;;;;;-148.88;80.67;-17125.47;5018207;28;20025;-74
2023/07/03 08:16:56;;;;;;;20.08;6.10;;;;;;;-148.88;82.10;-17125.47;5035753;28;20100;-74
2023/07/03 08:19:21;;;;;;;14.10;5.22;;;;;;;-148.88;82.59;-17125.47;5035891;28;20480;-75
2023/07/03 08:21:46;;;;;;;17.80;6.47;;;;;;;-148.88;82.79;-17125.47;5017978;28;20079;-74
2023/07/03 08:24:12;;;;;;;17.92;6.20;;;;;;;-148.88;80.76;-17125.47;5035881;28;20033;-74
2023/07/03 08:26:37;;;;;;;20.55;6.70;;;;;;;-148.88;79.73;-17125.47;5035871;28;20468;-74
2023/07/03 08:29:02;;;;;;;22.58;6.90;;;;;;;-148.88;81.54;-17125.47;5035649;28;20018;-75
2023/07/03 08:31:28;;;;;;;18.10;6.53;;;;;;;-148.88;81.63;-17125.47;5035599;28;20433;-75
2023/07/03 08:33:54;;;;;;;18.67;6.10;;;;;;;-148.88;80.42;-17125.47;5017835;28;20492;-74
2023/07/03 08:36:21;;;;;;;18.63;5.78;;;;;;;-148.88;79.91;-17125.47;5035347;28;20104;-75
2023/07/03 08:38:46;;;;;;;14.60;5.10;;;;;;;-148.88;77.98;-17125.47;5035622;28;20440;-74
2023/07/03 08:41:13;;;;;;;15.05;4.78;;;;;;;-148.88;76.05;-17125.47;5035920;28;20435;-74
2023/07/03 08:43:44;;;;;;;16.75;5.78;;;;;;;-148.88;78.92;-17125.47;5035430;28;20021;-74
2023/07/03 08:46:13;;;;;;;16.35;6.35;;;;;;;-148.88;80.75;-17125.47;5035304;28;20024;-74
2023/07/03 08:48:41;;;;;;;17.85;6.90;;;;;;;-148.88;82.26;-17125.47;5035266;28;20468;-74
2023/07/03 08:51:12;;;;;;;20.80;7.63;;;;;;;-148.88;82.54;-17125.47;5035145;28;20021;-74
2023/07/03 08:53:40;;;;;;;18.90;6.88;;;;;;;-148.88;83.16;-17125.47;5017326;28;20030;-74
2023/07/03 08:56:14;;;;;;;18.42;7.18;;;;;;;-148.88;83.89;-17125.47;5035117;28;20029;-74
2023/07/03 08:58:40;;;;;;;19.88;7.20;;;;;;;-148.88;82.29;-17125.47;5035294;28;20443;-74
2023/07/03 09:01:50;;;;;;;18.80;7.10;;;;;;;-148.88;81.16;-17125.47;5035070;28;20083;-74
2023/07/03 09:04:29;;;;;;;18.90;6.93;;;;;;;-148.88;80.77;-17125.47;4988012;28;20132;-74
2023/07/03 09:06:58;;;;;;;17.98;7.28;;;;;;;-148.88;80.87;-17125.47;5034816;28;20018;-74
2023/07/03 09:09:28;;;;;;;19.10;6.88;;;;;;;-148.88;83.46;-17125.47;5017058;28;20025;-74
2023/07/03 09:12:19;;;;;;;21.27;6.95;;;;;;;-148.88;82.64;-17125.47;5034638;28;20017;-74
2023/07/03 09:14:58;;;;;;;19.67;6.70;;;;;;;-148.88;83.57;-17125.47;5034890;28;20092;-75
2023/07/03 09:17:25;;;;;;;20.48;7.18;;;;;;;-148.88;86.03;-17125.47;5016797;28;20036;-74
2023/07/03 09:19:55;;;;;;;16.30;7.38;;;;;;;-148.88;89.10;-17125.47;5034645;28;20097;-74
2023/07/03 09:22:36;;;;;;;26.25;7.20;;;;;;;-148.88;92.48;-17125.47;5034412;28;20017;-75
2023/07/03 09:25:06;;;;;;;19.55;7.07;;;;;;;-148.88;92.29;-17125.47;5034388;28;20036;-74
2023/07/03 09:27:31;;;;;;;18.58;7.60;;;;;;;-148.88;93.70;-17125.47;5034285;28;20103;-74
2023/07/03 09:30:06;;;;;;;19.73;7.38;;;;;;;-148.88;94.28;-17125.47;5034331;28;20052;-75
2023/07/03 09:32:33;;;;;;;21.42;7.07;;;;;;;-148.88;93.23;-17125.47;5034553;28;20024;-74
2023/07/03 09:35:07;;;;;;;21.67;7.60;;;;;;;-148.88;93.45;-17125.47;5034125;28;20025;-74
2023/07/03 09:37:36;;;;;;;19.15;5.78;;;;;;;-148.88;85.26;-17125.47;5034192;28;20514;-74
2023/07/03 09:40:05;;;;;;;18.90;5.93;;;;;;;-148.88;81.87;-17125.47;5016258;28;20033;-75
2023/07/03 09:42:32;;;;;;;14.95;5.10;;;;;;;-148.88;77.85;-17125.47;5034035;28;20095;-74
2023/07/03 09:44:57;;;;;;;11.18;4.80;;;;;;;-148.88;73.17;-17125.47;5016276;28;20029;-74
2023/07/03 09:47:26;;;;;;;15.75;4.65;;;;;;;-148.88;68.13;-17125.47;5034037;28;20392;-74
2023/07/03 09:49:54;;;;;;;12.35;3.83;;;;;;;-148.88;66.18;-17125.47;5033957;28;20034;-75
2023/07/03 09:52:20;;;;;;;12.70;3.60;;;;;;;-148.88;63.00;-17125.47;5016154;28;20049;-75
2023/07/03 09:54:46;;;;;;;9.27;3.70;;;;;;;-148.88;66.18;-17125.47;5034036;28;20142;-74
2023/07/03 09:57:38;;;;;;;14.25;3.88;;;;;;;-148.88;66.88;-17125.47;5033805;28;20492;-74
2023/07/03 10:00:11;;;;;;;13.77;4.00;;;;;;;-148.88;67.53;-17125.47;5031192;28;20041;-75
2023/07/03 10:02:37;;;;;;;13.30;4.25;;;;;;;-148.88;67.31;-17125.47;5016342;28;20056;-74
2023/07/03 10:05:04;;;;;;;12.60;4.20;;;;;;;-148.88;65.66;-17125.47;5033618;28;20446;-74
2023/07/03 10:07:33;;;;;;;11.68;3.67;;;;;;;-148.88;62.70;-17125.47;5033892;28;20113;-74
2023/07/03 10:09:59;;;;;;;14.10;3.78;;;;;;;-148.88;60.80;-17125.47;5016208;28;20060;-74
2023/07/03 10:12:36;;;;;;;10.73;3.13;;;;;;;-148.88;57.25;-17125.47;5033447;28;20067;-74
2023/07/03 10:15:06;;;;;;;15.18;3.58;;;;;;;-148.88;56.32;-17125.47;5015644;28;20022;-74
2023/07/03 10:17:36;;;;;;;11.80;3.40;;;;;;;-148.88;53.57;-17125.47;5033503;28;20026;-75
2023/07/03 10:20:09;;;;;;;11.57;3.50;;;;;;;-148.88;52.23;-17125.47;5033314;28;20411;-75
2023/07/03 10:22:37;;;;;;;13.57;3.10;;;;;;;-148.88;53.82;-17125.47;5033659;28;20104;-74
2023/07/03 10:25:07;;;;;;;10.55;3.30;;;;;;;-148.88;52.19;-17125.47;5032783;28;20026;-74
2023/07/03 10:27:34;;;;;;;10.85;3.33;;;;;;;-148.88;53.12;-17125.47;5033370;28;20025;-74
2023/07/03 10:30:04;;;;;;;11.93;3.22;;;;;;;-148.88;51.23;-17125.47;5016109;28;20032;-75
2023/07/03 10:32:35;;;;;;;12.20;2.85;;;;;;;-148.88;50.83;-17125.47;5033263;28;20033;-75
2023/07/03 10:35:17;;;;;;;9.68;3.20;;;;;;;-148.88;51.54;-17125.47;5015559;28;20084;-74
2023/07/03 10:37:53;;;;;;;10.93;2.83;;;;;;;-148.88;50.19;-17125.47;5033376;28;20037;-74
2023/07/03 10:40:27;;;;;;;13.20;2.70;;;;;;;-148.88;51.81;-17125.47;5033161;28;20503;-75
2023/07/03 10:42:57;;;;;;;9.40;3.15;;;;;;;-148.88;51.12;-17125.47;5033139;28;20132;-74
2023/07/03 10:45:24;;;;;;;12.00;3.00;;;;;;;-148.88;52.18;-17125.47;5033087;28;20013;-74
2023/07/03 10:47:58;;;;;;;11.43;2.85;;;;;;;-148.88;51.63;-17125.47;5033000;28;20036;-74
2023/07/03 10:51:00;;;;;;;9.88;2.72;;;;;;;-148.88;50.72;-17125.47;5033012;28;20025;-74
2023/07/03 10:53:44;;;;;;;8.50;2.78;;;;;;;-148.88;51.10;-17125.47;5014107;28;20054;-75
2023/07/03 10:56:33;;;;;;;12.18;3.25;;;;;;;-148.88;51.54;-17125.47;5032975;28;20033;-74
2023/07/03 10:58:58;;;;;;;7.28;2.67;;;;;;;-148.88;48.42;-17125.47;5033427;28;20037;-74
2023/07/03 11:01:34;;;;;;;9.75;2.83;;;;;;;-148.88;49.45;-17125.47;5033345;28;20396;-74
2023/07/03 11:04:08;;;;;;;10.23;2.63;;;;;;;-148.88;46.76;-17125.47;5033149;28;20099;-74
2023/07/03 11:06:44;;;;;;;8.00;2.20;;;;;;;-148.88;47.86;-17125.47;5033354;28;20017;-75
2023/07/03 11:09:28;;;;;;;8.95;2.60;;;;;;;-148.88;46.68;-17125.47;5033350;28;20017;-74
2023/07/03 11:12:00;;;;;;;6.93;2.38;;;;;;;-148.88;45.51;-17125.47;5033502;28;20057;-74
2023/07/03 11:14:47;;;;;;;8.27;2.28;;;;;;;-148.88;47.33;-17125.47;5034229;28;20114;-75
2023/07/03 11:17:27;;;;;;;11.70;2.55;;;;;;;-148.88;51.01;-17125.47;5033206;28;20037;-74
2023/07/03 11:20:10;;;;;;;8.32;2.90;;;;;;;-148.88;49.95;-17125.47;5033380;28;20510;-74
2023/07/03 11:22:47;;;;;;;8.10;2.60;;;;;;;-148.88;50.08;-17125.47;5032877;28;20032;-74